Estación Meteorológica Peña el Pijo (Robertgarden) [ 09/24/17 17:47:50 CEST ]

Fecha Hora Presion(HPa) Temp (°C) Humedad % Rocio (°C) Viento ( m/s) Direccion Lluvia 1Hora(mm) Lluvia 24H(mm) LLuvia Total(mm)
2017-Sep-06 01:01:48 1016.500 15.1 72 10.1         1457.65
2017-Sep-06 02:01:38 1016.400 14.9 75 10.5         1457.65
2017-Sep-06 03:01:39 1015.900 14.3 76 10.1         1457.65
2017-Sep-06 04:01:41 1015.600 14.3 77 10.3         1457.65
2017-Sep-06 05:01:39 1015.200 13.3 77 9.3         1457.65
2017-Sep-06 06:01:45 1015.200 12.9 79 9.3         1457.65
2017-Sep-06 07:01:48 1015.000 13.3 79 9.7         1457.65
2017-Sep-06 08:01:44 1015.400 13.0 80 9.6         1457.65
2017-Sep-06 09:01:45 1015.400 16.1 80 12.7         1457.65
2017-Sep-06 10:01:45 1015.400 22.9 64 15.7         1457.65
2017-Sep-06 11:01:38 1015.200 28.4 45 15.3         1457.65
2017-Sep-06 12:01:46 1015.100 32.1 35 14.6         1457.65
2017-Sep-06 13:02:04 1014.600 31.5 32 12.7         1457.65
2017-Sep-06 14:01:49 1014.300 31.1 33 12.8         1457.65
2017-Sep-06 15:01:42 1013.800 32.2 31 12.9 1.5 S     1457.65
2017-Sep-06 16:01:40 1013.500 29.8 33 11.7 1.4 SSW     1457.65
2017-Sep-06 17:01:44 1012.700 30.4 33 12.2         1457.65
2017-Sep-06 18:01:59 1012.400 28.4 34 10.9         1457.65
2017-Sep-06 19:01:42 1012.500 27.2 36 10.8         1457.65
2017-Sep-06 20:01:39 1012.500 24.4 42 10.6         1457.65
2017-Sep-06 21:01:43 1012.800 22.6 47 10.6         1457.65
2017-Sep-06 22:01:53 1013.300 21.1 52 10.8         1457.65
2017-Sep-06 23:02:06 1013.700 19.0 58 10.6         1457.65

Temperatura Máxima:32°    Temperatura Mínima:12°
Presión Máxima:1016.500 Hpa    Presión Mínima:1012.400 Hpa


Volver